Time;durP1;ratioP1;P1;durP2;ratioP2;P2;SDS_P1;SDS_P2;PMS_P1;PMS_P2;Temp;Humidity;BMP_temperature;BMP_pressure;BME280_temperature;BME280_humidity;BME280_pressure;Samples;Min_cycle;Max_cycle;Signal;HPM_P1;HPM_P2
2023/08/31 00:00:53;;;;;;;1.45;0.90;;;19.50;70.40;;;;;;10424426;28;20034;-64
2023/08/31 00:05:54;;;;;;;2.08;0.80;;;19.50;70.40;;;;;;10408866;28;20025;-64
2023/08/31 00:11:02;;;;;;;2.05;1.00;;;19.50;70.40;;;;;;10408717;28;20026;-64
2023/08/31 00:16:04;;;;;;;1.30;0.82;;;19.50;70.40;;;;;;10408442;28;20049;-64
2023/08/31 00:21:05;;;;;;;3.63;1.00;;;19.50;70.40;;;;;;10409008;28;20025;-64
2023/08/31 00:26:06;;;;;;;1.95;1.42;;;19.50;70.40;;;;;;10420892;28;20037;-64
2023/08/31 00:31:07;;;;;;;1.38;0.80;;;19.50;70.40;;;;;;10451002;28;20116;-64
2023/08/31 00:36:08;;;;;;;2.58;0.90;;;19.50;70.30;;;;;;10454755;28;20033;-64
2023/08/31 00:41:09;;;;;;;1.20;0.80;;;19.50;70.30;;;;;;10457283;28;20419;-63
2023/08/31 00:46:10;;;;;;;1.90;0.68;;;19.50;71.00;;;;;;10438465;28;20025;-64
2023/08/31 00:51:11;;;;;;;2.05;0.80;;;19.50;70.30;;;;;;10415953;28;20021;-64
2023/08/31 00:56:13;;;;;;;1.55;0.90;;;19.40;70.30;;;;;;10414314;28;20594;-64
2023/08/31 01:01:43;;;;;;;3.22;1.15;;;19.50;70.30;;;;;;10423299;28;20499;-63
2023/08/31 01:07:11;;;;;;;2.40;1.10;;;19.50;70.30;;;;;;10414992;28;20053;-64
2023/08/31 01:12:52;;;;;;;1.90;0.85;;;19.40;70.90;;;;;;10445628;28;20025;-64
2023/08/31 01:17:54;;;;;;;1.45;0.70;;;19.40;70.20;;;;;;10454620;28;20037;-64
2023/08/31 01:23:06;;;;;;;1.77;0.80;;;19.40;70.30;;;;;;10455641;28;20372;-65
2023/08/31 01:28:07;;;;;;;2.10;1.15;;;19.40;70.30;;;;;;10431414;28;20048;-63
2023/08/31 01:33:08;;;;;;;1.63;0.98;;;19.40;70.30;;;;;;10418395;28;20033;-63
2023/08/31 01:38:11;;;;;;;1.92;0.90;;;19.40;70.20;;;;;;10412771;28;20033;-63
2023/08/31 01:43:12;;;;;;;2.75;1.40;;;19.40;70.20;;;;;;10420835;28;20481;-64
2023/08/31 01:48:14;;;;;;;2.72;1.38;;;19.40;70.20;;;;;;10422031;28;20041;-64
2023/08/31 01:53:15;;;;;;;3.10;1.20;;;19.40;70.20;;;;;;10423484;28;20022;-63
2023/08/31 01:58:16;;;;;;;2.33;1.20;;;19.30;70.10;;;;;;10427116;28;20064;-64
2023/08/31 02:03:17;;;;;;;4.25;1.30;;;19.40;70.20;;;;;;10409119;28;20046;-63
2023/08/31 02:08:17;;;;;;;2.88;1.85;;;19.30;70.20;;;;;;10412794;28;20503;-64
2023/08/31 02:13:18;;;;;;;2.17;1.02;;;19.30;70.20;;;;;;10412545;28;20057;-64
2023/08/31 02:18:19;;;;;;;3.10;1.40;;;19.30;70.20;;;;;;10412203;28;20033;-64
2023/08/31 02:23:20;;;;;;;2.38;1.50;;;19.30;70.20;;;;;;10412278;28;20479;-64
2023/08/31 02:28:21;;;;;;;1.83;1.40;;;19.30;70.20;;;;;;10441380;28;20040;-64
2023/08/31 02:33:22;;;;;;;2.33;1.50;;;19.30;70.20;;;;;;10437292;28;20098;-64
2023/08/31 02:38:23;;;;;;;3.25;1.20;;;19.30;70.20;;;;;;10445647;28;20056;-64
2023/08/31 02:43:25;;;;;;;3.17;1.50;;;19.30;70.20;;;;;;10411365;28;20022;-64
2023/08/31 02:48:27;;;;;;;2.10;1.10;;;19.30;70.30;;;;;;10411187;28;20472;-64
2023/08/31 02:53:31;;;;;;;2.70;1.52;;;19.30;70.20;;;;;;10411484;28;20833;-64
2023/08/31 02:58:32;;;;;;;1.90;1.10;;;19.30;70.30;;;;;;10410175;28;20045;-63
2023/08/31 03:03:32;;;;;;;2.35;1.30;;;19.30;70.20;;;;;;10410525;28;20140;-64
2023/08/31 03:08:33;;;;;;;3.17;1.75;;;19.30;70.20;;;;;;10409868;28;20035;-64
2023/08/31 03:13:34;;;;;;;2.05;1.20;;;19.30;70.20;;;;;;10409949;28;20053;-63
2023/08/31 03:18:35;;;;;;;2.85;1.67;;;19.20;70.20;;;;;;10409755;28;20026;-64
2023/08/31 03:23:36;;;;;;;5.00;1.42;;;19.30;70.20;;;;;;10410059;28;20029;-64
2023/08/31 03:28:38;;;;;;;4.05;1.30;;;19.30;70.30;;;;;;10444654;28;20045;-64
2023/08/31 03:33:39;;;;;;;4.57;1.52;;;19.20;70.20;;;;;;10411005;28;20067;-63
2023/08/31 03:38:40;;;;;;;3.30;1.40;;;19.30;70.30;;;;;;10412719;28;20442;-63
2023/08/31 03:43:41;;;;;;;1.98;1.15;;;19.30;70.90;;;;;;10421740;28;20121;-63
2023/08/31 03:48:41;;;;;;;2.78;1.15;;;19.30;70.70;;;;;;10422394;28;20606;-63
2023/08/31 03:53:43;;;;;;;1.83;1.05;;;19.40;70.70;;;;;;10422371;28;20029;-63
2023/08/31 03:58:44;;;;;;;2.53;1.17;;;19.40;70.90;;;;;;10420058;28;20033;-63
2023/08/31 04:03:45;;;;;;;2.50;1.35;;;19.40;70.80;;;;;;10415556;28;20385;-63
2023/08/31 04:08:46;;;;;;;1.17;0.80;;;19.40;71.00;;;;;;10412755;28;20029;-64
2023/08/31 04:13:46;;;;;;;2.42;1.30;;;19.30;70.70;;;;;;10429416;28;20052;-64
2023/08/31 04:18:51;;;;;;;3.95;1.70;;;19.30;70.40;;;;;;10413358;28;20033;-63
2023/08/31 04:23:52;;;;;;;1.70;1.13;;;19.30;70.50;;;;;;10413750;28;20481;-64
2023/08/31 04:28:53;;;;;;;1.88;1.02;;;19.30;70.50;;;;;;10441190;28;20037;-63
2023/08/31 04:33:53;;;;;;;4.07;1.35;;;19.20;70.50;;;;;;10416139;28;20043;-64
2023/08/31 04:38:54;;;;;;;1.58;0.90;;;19.20;70.50;;;;;;10412864;28;20037;-62
2023/08/31 04:43:55;;;;;;;2.70;1.17;;;19.30;70.80;;;;;;10425012;28;20581;-66
2023/08/31 04:48:56;;;;;;;1.88;1.38;;;19.30;70.70;;;;;;10413859;28;20388;-67
2023/08/31 04:53:56;;;;;;;4.00;1.80;;;19.30;70.10;;;;;;10411217;28;20032;-67
2023/08/31 04:58:57;;;;;;;3.65;1.80;;;19.20;70.20;;;;;;10414082;28;20583;-67
2023/08/31 05:03:58;;;;;;;2.70;1.75;;;19.20;70.10;;;;;;10418306;28;20056;-62
2023/08/31 05:09:00;;;;;;;3.00;1.60;;;19.20;70.40;;;;;;10419568;28;20030;-61
2023/08/31 05:14:01;;;;;;;5.63;1.65;;;19.30;70.70;;;;;;10412938;28;20041;-64
2023/08/31 05:19:02;;;;;;;5.45;1.98;;;19.40;70.40;;;;;;10413330;28;20041;-63
2023/08/31 05:24:03;;;;;;;5.75;1.42;;;19.40;70.60;;;;;;10413870;28;20022;-59
2023/08/31 05:29:05;;;;;;;4.97;1.75;;;19.50;70.80;;;;;;10417583;28;20059;-60
2023/08/31 05:34:05;;;;;;;20.83;4.18;;;19.50;71.20;;;;;;10425680;28;20032;-63
2023/08/31 05:39:06;;;;;;;11.52;2.13;;;19.50;71.00;;;;;;10425889;28;20055;-65
2023/08/31 05:44:09;;;;;;;10.70;2.72;;;19.50;70.80;;;;;;10419278;28;20492;-65
2023/08/31 05:49:10;;;;;;;14.60;2.35;;;19.50;71.10;;;;;;10414657;28;20084;-64
2023/08/31 05:54:13;;;;;;;9.93;2.45;;;19.40;71.80;;;;;;10412169;28;20079;-64
2023/08/31 05:59:13;;;;;;;9.57;2.70;;;19.40;71.20;;;;;;10412125;28;20156;-64
2023/08/31 06:04:14;;;;;;;8.40;2.15;;;19.30;71.30;;;;;;10412389;28;20037;-63
2023/08/31 06:09:16;;;;;;;6.47;1.85;;;19.30;71.20;;;;;;10411360;28;20083;-65
2023/08/31 06:14:16;;;;;;;5.97;1.90;;;19.30;71.10;;;;;;10410371;28;20400;-64
2023/08/31 06:19:17;;;;;;;14.15;2.58;;;19.30;71.40;;;;;;10421722;28;20029;-64
2023/08/31 06:24:18;;;;;;;6.97;2.22;;;19.30;71.10;;;;;;10423702;28;20388;-64
2023/08/31 06:29:19;;;;;;;5.78;1.83;;;19.20;71.00;;;;;;10441612;28;20040;-65
2023/08/31 06:34:19;;;;;;;5.68;1.60;;;19.30;71.00;;;;;;10409410;28;20587;-64
2023/08/31 06:39:20;;;;;;;4.80;1.70;;;19.30;71.20;;;;;;10422523;28;20511;-65
2023/08/31 06:44:21;;;;;;;5.85;1.98;;;19.20;71.10;;;;;;10410520;28;20030;-64
2023/08/31 06:49:23;;;;;;;5.40;1.90;;;19.20;71.20;;;;;;10409894;28;20088;-64
2023/08/31 06:54:24;;;;;;;5.03;1.88;;;19.20;71.20;;;;;;10410345;28;20033;-65
2023/08/31 06:59:25;;;;;;;5.60;2.13;;;19.20;71.20;;;;;;10409449;28;20034;-64
2023/08/31 07:04:27;;;;;;;4.47;1.90;;;19.20;71.10;;;;;;10408366;28;20477;-65
2023/08/31 07:09:28;;;;;;;3.72;1.40;;;19.20;71.20;;;;;;10409336;28;20038;-64
2023/08/31 07:14:28;;;;;;;5.75;2.15;;;19.20;71.40;;;;;;10409011;28;20454;-65
2023/08/31 07:19:29;;;;;;;5.43;2.58;;;19.20;71.40;;;;;;10409301;28;20025;-65
2023/08/31 07:24:30;;;;;;;3.90;1.73;;;19.20;71.40;;;;;;10409343;28;20032;-65
2023/08/31 07:29:31;;;;;;;4.25;1.63;;;19.20;71.30;;;;;;10436185;28;20063;-64
2023/08/31 07:34:34;;;;;;;5.20;1.60;;;19.20;71.30;;;;;;10423689;28;20049;-64
2023/08/31 07:39:34;;;;;;;4.18;1.38;;;19.20;71.30;;;;;;10412600;28;20087;-64
2023/08/31 07:44:35;;;;;;;2.78;1.38;;;19.10;71.30;;;;;;10408175;28;20025;-63
2023/08/31 07:49:36;;;;;;;2.97;1.50;;;19.20;71.40;;;;;;10415040;28;20472;-65
2023/08/31 07:54:36;;;;;;;2.78;1.23;;;19.10;71.40;;;;;;10408805;28;20041;-65
2023/08/31 07:59:39;;;;;;;3.88;1.40;;;19.20;71.40;;;;;;10439438;28;20504;-64
2023/08/31 08:04:40;;;;;;;2.50;1.25;;;19.10;71.30;;;;;;10447787;28;20098;-64
2023/08/31 08:09:40;;;;;;;3.38;1.42;;;19.10;71.40;;;;;;10448460;28;20349;-65
2023/08/31 08:14:41;;;;;;;3.88;1.58;;;19.10;71.40;;;;;;10447256;28;20047;-65
2023/08/31 08:19:42;;;;;;;3.60;1.88;;;19.20;71.60;;;;;;10434979;28;20083;-63
2023/08/31 08:24:43;;;;;;;3.42;1.83;;;19.20;71.50;;;;;;10408860;28;20091;-64
2023/08/31 08:29:43;;;;;;;2.63;1.42;;;19.20;71.60;;;;;;10434511;28;20034;-65
2023/08/31 08:34:44;;;;;;;3.00;1.30;;;19.20;71.30;;;;;;10407474;28;20548;-64
2023/08/31 08:39:51;;;;;;;2.72;1.58;;;19.20;71.50;;;;;;10412641;28;20037;-64
2023/08/31 08:44:52;;;;;;;2.92;1.38;;;19.20;71.60;;;;;;10407609;28;20026;-64
2023/08/31 08:49:54;;;;;;;3.55;1.50;;;19.20;71.50;;;;;;10407390;28;20029;-63
2023/08/31 08:54:57;;;;;;;2.50;1.35;;;19.20;71.60;;;;;;10409067;28;20140;-64
2023/08/31 08:59:59;;;;;;;3.13;1.55;;;19.30;71.50;;;;;;10426198;28;20032;-64
2023/08/31 09:05:00;;;;;;;3.15;1.73;;;19.30;71.30;;;;;;10428058;28;20469;-64
2023/08/31 09:10:00;;;;;;;3.08;1.35;;;19.30;71.30;;;;;;10413641;28;20053;-64
2023/08/31 09:15:06;;;;;;;3.35;1.50;;;19.30;71.40;;;;;;10414112;28;20114;-65
2023/08/31 09:20:09;;;;;;;3.88;1.70;;;19.40;71.40;;;;;;10413499;28;20033;-64
2023/08/31 09:25:09;;;;;;;2.65;1.58;;;19.40;71.50;;;;;;10417615;28;20043;-65
2023/08/31 09:30:11;;;;;;;2.55;1.50;;;19.40;71.50;;;;;;10436742;28;20079;-65
2023/08/31 09:35:12;;;;;;;2.90;1.40;;;19.40;71.50;;;;;;10413707;28;20029;-64
2023/08/31 09:40:15;;;;;;;2.50;1.30;;;19.40;71.60;;;;;;10428170;28;20026;-64
2023/08/31 09:45:28;;;;;;;3.50;1.58;;;19.40;71.50;;;;;;10426870;28;20034;-63
2023/08/31 09:50:31;;;;;;;2.35;1.25;;;19.40;71.40;;;;;;10412493;28;20384;-64
2023/08/31 09:55:32;;;;;;;3.53;1.55;;;19.40;71.50;;;;;;10412769;28;20071;-64
2023/08/31 10:00:36;;;;;;;1.90;1.10;;;19.40;71.50;;;;;;10412415;28;20115;-64
2023/08/31 10:05:38;;;;;;;3.28;1.27;;;19.30;71.40;;;;;;10411083;28;20048;-64
2023/08/31 10:10:40;;;;;;;2.42;1.35;;;19.40;71.50;;;;;;10411944;28;20030;-64
2023/08/31 10:15:44;;;;;;;5.32;1.52;;;19.30;71.50;;;;;;10411723;28;20064;-65
2023/08/31 10:20:46;;;;;;;3.38;1.02;;;19.40;71.80;;;;;;10411115;28;20068;-65
2023/08/31 10:25:50;;;;;;;3.92;1.55;;;19.40;71.60;;;;;;10421493;28;20643;-65
2023/08/31 10:31:31;;;;;;;3.55;2.38;;;19.40;71.60;;;;;;10430161;28;20041;-64
2023/08/31 10:36:44;;;;;;;2.10;1.55;;;19.40;71.50;;;;;;10296878;28;20113;-64
2023/08/31 10:42:03;;;;;;;3.67;1.60;;;19.50;71.50;;;;;;10283798;28;20410;-63
2023/08/31 10:47:05;;;;;;;3.13;1.20;;;19.50;71.50;;;;;;10267516;28;20043;-64
2023/08/31 10:52:20;;;;;;;2.13;1.30;;;19.50;71.40;;;;;;10293362;28;20305;-65
2023/08/31 10:57:30;;;;;;;2.15;0.95;;;19.60;71.40;;;;;;10307169;28;20507;-64
2023/08/31 11:02:37;;;;;;;1.92;1.13;;;19.60;71.20;;;;;;10307240;28;20707;-64
2023/08/31 11:07:49;;;;;;;3.80;1.40;;;19.60;71.10;;;;;;10395580;28;20132;-63
2023/08/31 11:12:53;;;;;;;2.10;1.25;;;19.80;71.00;;;;;;10421392;28;20103;-63
2023/08/31 11:17:55;;;;;;;2.28;1.40;;;19.80;70.90;;;;;;10405062;28;20021;-64
2023/08/31 11:22:56;;;;;;;1.40;0.85;;;19.80;71.50;;;;;;10408952;28;20114;-63
2023/08/31 11:27:59;;;;;;;1.88;0.80;;;19.80;71.90;;;;;;10437142;28;20108;-64
2023/08/31 11:33:06;;;;;;;1.75;1.30;;;19.80;71.80;;;;;;10408626;28;20040;-64
2023/08/31 11:38:07;;;;;;;2.08;1.10;;;19.80;71.70;;;;;;10413419;28;20046;-64
2023/08/31 11:43:08;;;;;;;2.30;1.33;;;19.80;71.80;;;;;;10408464;28;20037;-63
2023/08/31 11:48:09;;;;;;;2.65;1.17;;;19.90;71.90;;;;;;10408935;28;20382;-64
2023/08/31 11:53:10;;;;;;;2.03;0.90;;;19.90;71.50;;;;;;10416367;28;20040;-64
2023/08/31 11:58:11;;;;;;;3.30;1.40;;;19.90;71.40;;;;;;10408131;28;20040;-64
2023/08/31 12:03:12;;;;;;;1.63;0.88;;;19.90;71.30;;;;;;10407925;28;20056;-64
2023/08/31 12:08:16;;;;;;;1.40;0.90;;;20.00;71.20;;;;;;10420276;28;20109;-63
2023/08/31 12:13:17;;;;;;;1.42;1.00;;;20.00;71.00;;;;;;10407296;28;20103;-64
2023/08/31 12:18:17;;;;;;;1.80;1.45;;;20.00;71.00;;;;;;10407819;28;20434;-64
2023/08/31 12:23:22;;;;;;;1.05;0.70;;;20.00;70.70;;;;;;10409959;28;20056;-64
2023/08/31 12:28:24;;;;;;;1.40;0.80;;;20.00;70.60;;;;;;10441650;28;20033;-64
2023/08/31 12:33:25;;;;;;;1.77;0.90;;;20.00;70.60;;;;;;10455407;28;20456;-64
2023/08/31 12:38:25;;;;;;;2.80;1.17;;;20.00;70.50;;;;;;10455999;28;20037;-64
2023/08/31 12:43:26;;;;;;;1.75;1.10;;;20.00;70.50;;;;;;10456586;28;20037;-64
2023/08/31 12:48:27;;;;;;;1.63;0.90;;;20.10;70.50;;;;;;10456434;28;20353;-64
2023/08/31 12:53:28;;;;;;;1.77;1.10;;;20.10;70.40;;;;;;10455849;28;20483;-64
2023/08/31 12:58:28;;;;;;;0.85;0.60;;;20.00;70.40;;;;;;10456202;28;20025;-64
2023/08/31 13:03:29;;;;;;;1.55;0.77;;;20.00;70.30;;;;;;10442029;28;20033;-64
2023/08/31 13:08:30;;;;;;;1.38;0.80;;;20.00;70.40;;;;;;10414153;28;20037;-64
2023/08/31 13:13:31;;;;;;;1.45;0.70;;;20.00;70.20;;;;;;10416632;28;20304;-64
2023/08/31 13:18:32;;;;;;;2.10;0.95;;;20.00;70.20;;;;;;10413913;28;20026;-64
2023/08/31 13:23:33;;;;;;;1.10;0.73;;;20.00;70.10;;;;;;10419413;28;20499;-64
2023/08/31 13:28:33;;;;;;;4.15;1.00;;;20.00;70.10;;;;;;10418255;28;20033;-64
2023/08/31 13:33:34;;;;;;;2.00;1.20;;;20.00;70.10;;;;;;10413310;28;20233;-63
2023/08/31 13:38:35;;;;;;;1.55;0.85;;;20.00;70.10;;;;;;10412937;28;20119;-64
2023/08/31 13:43:36;;;;;;;0.98;0.77;;;20.00;70.10;;;;;;10412483;28;20026;-64
2023/08/31 13:48:37;;;;;;;3.30;1.63;;;20.00;70.20;;;;;;10413006;28;20527;-64
2023/08/31 13:53:38;;;;;;;1.50;1.27;;;19.90;70.10;;;;;;10412453;28;20029;-63
2023/08/31 13:58:38;;;;;;;1.80;1.13;;;19.90;70.20;;;;;;10412655;28;20026;-64
2023/08/31 14:03:39;;;;;;;1.10;0.70;;;20.00;70.30;;;;;;10427266;28;20030;-64
2023/08/31 14:08:40;;;;;;;1.80;0.65;;;20.00;70.20;;;;;;10414714;28;20094;-64
2023/08/31 14:13:44;;;;;;;1.15;0.63;;;19.90;70.10;;;;;;10411818;28;20057;-63
2023/08/31 14:18:45;;;;;;;1.50;1.00;;;19.90;70.70;;;;;;10411704;28;20034;-63
2023/08/31 14:23:46;;;;;;;1.52;0.80;;;19.90;70.10;;;;;;10410241;28;20068;-64
2023/08/31 14:28:47;;;;;;;1.20;0.88;;;20.00;70.10;;;;;;10429643;28;20590;-64
2023/08/31 14:33:48;;;;;;;1.40;0.85;;;19.90;70.80;;;;;;10411070;28;20021;-64
2023/08/31 14:38:48;;;;;;;1.73;0.95;;;19.90;70.20;;;;;;10421722;28;20564;-63
2023/08/31 14:43:50;;;;;;;0.95;0.55;;;19.90;70.10;;;;;;10433979;28;20025;-64
2023/08/31 14:48:51;;;;;;;1.13;0.60;;;19.90;70.20;;;;;;10450752;28;20025;-64
2023/08/31 14:53:51;;;;;;;1.27;0.70;;;19.90;70.10;;;;;;10449685;28;20541;-63
2023/08/31 14:58:52;;;;;;;1.83;0.85;;;19.90;70.00;;;;;;10450127;28;20095;-63
2023/08/31 15:03:53;;;;;;;3.00;0.70;;;19.90;69.80;;;;;;10451026;28;20443;-63
2023/08/31 15:08:53;;;;;;;0.98;0.70;;;19.90;69.90;;;;;;10449446;28;20063;-64
2023/08/31 15:13:54;;;;;;;1.02;0.60;;;19.90;69.90;;;;;;10450898;28;20071;-64
2023/08/31 15:18:55;;;;;;;1.05;0.70;;;19.80;70.00;;;;;;10450651;28;20508;-64
2023/08/31 15:23:56;;;;;;;1.35;0.75;;;19.80;70.00;;;;;;10442752;28;20029;-63
2023/08/31 15:28:56;;;;;;;1.10;0.70;;;19.80;70.10;;;;;;10414277;28;20039;-63
2023/08/31 15:33:57;;;;;;;1.05;0.70;;;19.80;70.10;;;;;;10409398;28;20033;-64
2023/08/31 15:38:58;;;;;;;1.58;0.77;;;19.90;70.20;;;;;;10422312;28;20091;-64
2023/08/31 15:43:59;;;;;;;1.42;0.77;;;19.80;70.10;;;;;;10408457;28;20435;-64
2023/08/31 15:49:00;;;;;;;0.95;0.70;;;19.90;70.00;;;;;;10408801;28;20100;-63
2023/08/31 15:54:04;;;;;;;2.20;1.10;;;19.80;70.00;;;;;;10424020;28;20028;-64
2023/08/31 15:59:05;;;;;;;0.90;0.73;;;19.80;70.10;;;;;;10407862;28;20034;-63
2023/08/31 16:04:06;;;;;;;1.33;0.85;;;19.80;70.10;;;;;;10407147;28;20025;-64
2023/08/31 16:09:07;;;;;;;1.33;0.63;;;19.90;70.10;;;;;;10407760;28;20041;-64
2023/08/31 16:14:08;;;;;;;1.55;0.80;;;19.80;70.10;;;;;;10415816;28;20045;-64
2023/08/31 16:19:11;;;;;;;7.68;1.58;;;19.80;70.10;;;;;;10419211;28;20033;-62
2023/08/31 16:24:11;;;;;;;4.15;1.15;;;19.90;70.10;;;;;;10413363;28;20029;-62
2023/08/31 16:29:12;;;;;;;4.65;1.52;;;19.90;70.40;;;;;;10412909;28;20072;-62
2023/08/31 16:34:13;;;;;;;14.20;6.75;;;19.90;71.10;;;;;;10414597;28;20037;-62
2023/08/31 16:39:13;;;;;;;4.40;2.22;;;20.20;72.90;;;;;;10433869;28;20037;-63
2023/08/31 16:44:14;;;;;;;13.52;8.35;;;20.30;71.10;;;;;;10448156;28;20044;-62
2023/08/31 16:49:15;;;;;;;42.97;21.02;;;20.20;73.30;;;;;;10429263;28;20595;-63
2023/08/31 16:54:16;;;;;;;28.08;12.15;;;20.20;73.50;;;;;;10406820;28;20038;-60
2023/08/31 16:59:16;;;;;;;23.58;9.35;;;20.20;71.50;;;;;;10406931;28;20495;-59
2023/08/31 17:04:17;;;;;;;20.30;8.20;;;20.30;70.50;;;;;;10407347;28;20604;-60
2023/08/31 17:09:18;;;;;;;22.42;8.93;;;20.40;70.40;;;;;;10426461;28;20083;-60
2023/08/31 17:14:19;;;;;;;31.77;9.48;;;20.40;70.30;;;;;;10420127;28;20052;-62
2023/08/31 17:19:20;;;;;;;26.90;8.57;;;20.40;70.40;;;;;;10418076;28;20419;-62
2023/08/31 17:24:21;;;;;;;23.80;8.07;;;20.30;70.60;;;;;;10434896;28;20026;-62
2023/08/31 17:29:21;;;;;;;23.77;8.30;;;20.30;70.80;;;;;;10440767;28;20025;-61
2023/08/31 17:34:22;;;;;;;26.20;7.40;;;20.30;71.50;;;;;;10440616;28;20128;-63
2023/08/31 17:39:23;;;;;;;43.28;8.75;;;20.30;70.80;;;;;;10430224;28;20025;-62
2023/08/31 17:44:24;;;;;;;21.05;7.43;;;20.20;70.90;;;;;;10444243;28;20053;-61
2023/08/31 17:49:25;;;;;;;31.52;7.30;;;20.20;71.80;;;;;;10429216;28;20059;-62
2023/08/31 17:54:26;;;;;;;17.52;5.68;;;20.20;71.80;;;;;;10430518;28;20126;-60
2023/08/31 17:59:27;;;;;;;17.70;6.97;;;20.20;71.90;;;;;;10427912;28;20025;-61
2023/08/31 18:04:28;;;;;;;17.02;5.57;;;20.10;72.00;;;;;;10431595;28;20426;-62
2023/08/31 18:09:36;;;;;;;19.73;6.22;;;20.10;71.80;;;;;;10428822;28;20078;-60
2023/08/31 18:14:37;;;;;;;17.17;4.47;;;20.10;71.90;;;;;;10433765;28;20136;-62
2023/08/31 18:19:38;;;;;;;13.60;4.50;;;20.10;71.90;;;;;;10453013;28;20116;-62
2023/08/31 18:24:39;;;;;;;15.85;5.50;;;20.10;71.90;;;;;;10413842;28;20029;-62
2023/08/31 18:29:40;;;;;;;17.50;6.07;;;20.10;72.00;;;;;;10427842;28;20362;-62
2023/08/31 18:34:43;;;;;;;15.60;4.72;;;20.10;72.10;;;;;;10413159;28;20045;-62
2023/08/31 18:39:44;;;;;;;14.73;5.43;;;20.00;72.10;;;;;;10435870;28;20472;-62
2023/08/31 18:44:45;;;;;;;13.30;5.15;;;20.00;72.00;;;;;;10416656;28;20029;-62
2023/08/31 18:49:49;;;;;;;13.63;5.45;;;20.00;71.70;;;;;;10409107;28;20083;-62
2023/08/31 18:54:50;;;;;;;15.07;4.55;;;20.00;72.10;;;;;;10410702;28;20475;-62
2023/08/31 18:59:51;;;;;;;8.07;3.83;;;20.00;71.50;;;;;;10422398;28;20025;-62
2023/08/31 19:04:54;;;;;;;8.52;3.85;;;20.10;72.30;;;;;;10409311;28;20029;-62
2023/08/31 19:09:54;;;;;;;8.90;4.55;;;20.10;72.30;;;;;;10409894;28;20040;-64
2023/08/31 19:14:55;;;;;;;9.75;4.20;;;20.10;72.00;;;;;;10410908;28;20037;-63
2023/08/31 19:19:56;;;;;;;9.68;4.30;;;20.00;71.60;;;;;;10415485;28;20037;-63
2023/08/31 19:24:57;;;;;;;11.15;4.13;;;20.00;71.90;;;;;;10431847;28;20026;-63
2023/08/31 19:29:57;;;;;;;9.48;3.28;;;19.90;71.80;;;;;;10412763;28;20469;-64
2023/08/31 19:34:58;;;;;;;8.38;3.60;;;19.90;71.80;;;;;;10422286;28;20060;-64
2023/08/31 19:40:06;;;;;;;9.43;3.78;;;19.90;72.10;;;;;;10428905;28;20479;-64
2023/08/31 19:45:07;;;;;;;8.45;3.60;;;19.90;72.10;;;;;;10413132;28;20044;-64
2023/08/31 19:50:10;;;;;;;9.57;3.47;;;19.90;72.30;;;;;;10408996;28;20025;-64
2023/08/31 19:55:12;;;;;;;6.72;3.20;;;19.80;72.40;;;;;;10421505;28;20033;-64
2023/08/31 20:00:17;;;;;;;5.50;3.45;;;19.80;72.40;;;;;;10422637;28;20108;-64
2023/08/31 20:05:20;;;;;;;5.32;2.95;;;19.80;72.40;;;;;;10437006;28;20043;-63
2023/08/31 20:10:22;;;;;;;8.05;2.80;;;19.80;72.30;;;;;;10448615;28;20024;-63
2023/08/31 20:15:23;;;;;;;9.85;4.13;;;19.80;72.70;;;;;;10432388;28;20049;-64
2023/08/31 20:20:23;;;;;;;6.07;3.00;;;19.80;72.60;;;;;;10407808;28;20026;-64
2023/08/31 20:25:24;;;;;;;8.38;2.97;;;19.80;72.60;;;;;;10415251;28;20029;-64
2023/08/31 20:30:27;;;;;;;5.35;2.67;;;19.80;72.60;;;;;;10419052;28;20029;-63
2023/08/31 20:35:28;;;;;;;6.68;2.70;;;19.80;72.50;;;;;;10408473;28;20029;-63
2023/08/31 20:40:29;;;;;;;7.68;3.75;;;19.80;72.40;;;;;;10408125;28;20041;-64
2023/08/31 20:45:31;;;;;;;5.65;2.83;;;19.80;72.40;;;;;;10408454;28;20071;-63
2023/08/31 20:50:31;;;;;;;8.05;2.35;;;19.70;72.20;;;;;;10409428;28;20091;-64
2023/08/31 20:55:32;;;;;;;6.50;2.90;;;19.70;72.20;;;;;;10415897;28;20080;-63
2023/08/31 21:00:33;;;;;;;4.38;2.17;;;19.70;72.20;;;;;;10415412;28;20128;-64
2023/08/31 21:05:34;;;;;;;3.85;2.20;;;19.70;72.20;;;;;;10415765;28;20025;-63
2023/08/31 21:10:34;;;;;;;4.75;2.13;;;19.70;72.10;;;;;;10414750;28;20036;-63
2023/08/31 21:15:35;;;;;;;6.97;3.00;;;19.70;72.10;;;;;;10413225;28;20045;-64
2023/08/31 21:20:36;;;;;;;5.25;2.58;;;19.70;72.10;;;;;;10414938;28;20091;-63
2023/08/31 21:25:37;;;;;;;5.00;2.40;;;19.70;72.10;;;;;;10423035;28;20040;-63
2023/08/31 21:30:40;;;;;;;5.88;3.03;;;19.70;72.70;;;;;;10435728;28;20041;-63
2023/08/31 21:35:43;;;;;;;3.55;1.67;;;19.70;72.20;;;;;;10445615;28;20033;-61
2023/08/31 21:40:46;;;;;;;4.05;2.45;;;19.70;72.30;;;;;;10412913;28;20022;-61
2023/08/31 21:45:47;;;;;;;3.60;2.20;;;19.70;72.20;;;;;;10441185;28;20032;-61
2023/08/31 21:50:48;;;;;;;4.72;2.25;;;19.70;72.20;;;;;;10453291;28;20025;-61
2023/08/31 21:55:49;;;;;;;5.00;2.50;;;19.60;72.00;;;;;;10454626;28;20468;-61
2023/08/31 22:00:51;;;;;;;3.45;1.52;;;19.60;72.00;;;;;;10452594;28;20056;-61
2023/08/31 22:05:52;;;;;;;4.40;1.70;;;19.60;71.90;;;;;;10454293;28;20025;-61
2023/08/31 22:10:55;;;;;;;4.75;2.10;;;19.60;72.00;;;;;;10452618;28;20456;-61
2023/08/31 22:15:56;;;;;;;3.45;1.90;;;19.60;72.00;;;;;;10453813;28;20051;-61
2023/08/31 22:20:57;;;;;;;5.85;1.60;;;19.60;71.90;;;;;;10453269;28;20033;-61
2023/08/31 22:25:58;;;;;;;3.40;1.85;;;19.60;71.90;;;;;;10428566;28;20169;-61
2023/08/31 22:30:59;;;;;;;3.08;1.55;;;19.60;71.90;;;;;;10452219;28;20456;-61
2023/08/31 22:36:03;;;;;;;3.63;2.08;;;19.60;71.80;;;;;;10451708;28;20031;-61
2023/08/31 22:41:07;;;;;;;4.07;1.92;;;19.60;71.80;;;;;;10435846;28;20032;-61
2023/08/31 22:46:09;;;;;;;5.32;2.45;;;19.60;71.90;;;;;;10410167;28;20018;-60
2023/08/31 22:51:10;;;;;;;4.10;1.80;;;19.60;71.80;;;;;;10409408;28;20029;-61
2023/08/31 22:56:10;;;;;;;4.78;1.92;;;19.60;71.90;;;;;;10411293;28;20033;-61
2023/08/31 23:01:11;;;;;;;4.43;2.15;;;19.60;71.80;;;;;;10410709;28;20044;-60
2023/08/31 23:06:12;;;;;;;4.93;1.98;;;19.60;71.80;;;;;;10410621;28;20029;-61
2023/08/31 23:11:13;;;;;;;3.80;1.77;;;19.60;71.80;;;;;;10410232;28;20033;-60
2023/08/31 23:16:14;;;;;;;5.65;2.05;;;19.60;71.80;;;;;;10407996;28;20052;-61
2023/08/31 23:21:14;;;;;;;4.63;2.15;;;19.60;71.80;;;;;;10423794;28;20453;-61
2023/08/31 23:26:15;;;;;;;4.72;2.35;;;19.60;71.80;;;;;;10424190;28;20061;-60
2023/08/31 23:31:18;;;;;;;4.50;1.55;;;19.50;71.90;;;;;;10452010;28;20036;-61
2023/08/31 23:36:19;;;;;;;6.07;1.95;;;19.50;71.70;;;;;;10450654;28;20048;-61
2023/08/31 23:41:20;;;;;;;2.92;1.80;;;19.50;71.70;;;;;;10419058;28;20350;-60
2023/08/31 23:46:21;;;;;;;3.17;1.80;;;19.50;71.60;;;;;;10415469;28;20025;-61
2023/08/31 23:51:21;;;;;;;3.90;1.48;;;19.50;71.70;;;;;;10415864;28;20079;-60
2023/08/31 23:56:22;;;;;;;2.47;1.50;;;19.50;71.70;;;;;;10422792;28;20080;-60
